Time;durP1;ratioP1;P1;durP2;ratioP2;P2;SDS_P1;SDS_P2;PMS_P1;PMS_P2;Temp;Humidity;BMP_temperature;BMP_pressure;BME280_temperature;BME280_humidity;BME280_pressure;Samples;Min_cycle;Max_cycle;Signal;HPM_P1;HPM_P2
2021/11/18 08:52:41;;;;;;;45.28;18.08;;;7.90;99.90;;;;;;4905956;22;20056;-66
2021/11/18 08:55:11;;;;;;;41.65;18.92;;;8.00;99.90;;;;;;5009836;28;20596;-66
2021/11/18 08:57:39;;;;;;;37.30;18.13;;;8.10;99.90;;;;;;5010613;28;20108;-66
2021/11/18 09:00:09;;;;;;;36.10;17.27;;;8.30;99.90;;;;;;5010718;28;20042;-66
2021/11/18 09:02:36;;;;;;;35.17;17.45;;;8.80;99.90;;;;;;5010471;28;20096;-66
2021/11/18 09:05:03;;;;;;;32.28;17.05;;;9.40;99.90;;;;;;5009449;28;20132;-66
2021/11/18 09:07:30;;;;;;;28.38;15.75;;;11.00;99.90;;;;;;5014742;28;20073;-66
2021/11/18 09:09:59;;;;;;;25.77;15.35;;;11.30;99.90;;;;;;5020126;28;20053;-66
2021/11/18 09:12:26;;;;;;;33.22;14.80;;;10.70;99.90;;;;;;5017796;28;20077;-65
2021/11/18 09:14:53;;;;;;;23.42;13.85;;;10.60;99.90;;;;;;5020373;28;20050;-66
2021/11/18 09:17:20;;;;;;;31.63;14.68;;;10.30;99.90;;;;;;5021401;28;20058;-66
2021/11/18 09:19:48;;;;;;;28.67;13.63;;;10.00;99.90;;;;;;5021282;28;20085;-66
2021/11/18 09:22:15;;;;;;;26.40;13.90;;;9.60;99.90;;;;;;5021946;28;20085;-66
2021/11/18 09:24:45;;;;;;;26.38;14.13;;;9.70;99.90;;;;;;5024457;28;20045;-67
2021/11/18 09:27:16;;;;;;;28.50;13.88;;;9.30;99.90;;;;;;5021601;28;20193;-66
2021/11/18 09:29:44;;;;;;;29.10;13.90;;;9.60;99.90;;;;;;5014397;28;20088;-66
2021/11/18 09:32:11;;;;;;;30.60;14.57;;;9.50;99.90;;;;;;5014069;28;20050;-67
2021/11/18 09:34:40;;;;;;;30.33;14.55;;;9.40;99.90;;;;;;5013562;28;20050;-66
2021/11/18 09:37:07;;;;;;;23.60;12.82;;;9.30;99.90;;;;;;5013975;28;20050;-66
2021/11/18 09:39:34;;;;;;;25.73;13.05;;;10.60;99.90;;;;;;5014037;28;20175;-66
2021/11/18 09:42:05;;;;;;;26.02;12.82;;;11.40;99.90;;;;;;5014418;28;20054;-66
2021/11/18 09:45:00;;;;;;;22.92;13.00;;;11.00;99.90;;;;;;5014049;28;20128;-67
2021/11/18 09:48:03;;;;;;;25.10;12.30;;;10.60;99.90;;;;;;5013980;28;20057;-67
2021/11/18 09:50:41;;;;;;;25.42;12.20;;;9.90;99.90;;;;;;5013669;28;20092;-66
2021/11/18 09:53:16;;;;;;;25.63;12.38;;;10.10;99.90;;;;;;5013309;28;20061;-66
2021/11/18 09:55:47;;;;;;;28.95;12.98;;;10.20;99.90;;;;;;5012899;28;20050;-66
2021/11/18 09:58:38;;;;;;;21.55;12.10;;;10.00;99.90;;;;;;5013600;28;20046;-66
2021/11/18 10:01:37;;;;;;;23.17;12.35;;;10.70;99.90;;;;;;5013745;28;20479;-66
2021/11/18 10:04:22;;;;;;;23.40;11.57;;;12.10;99.90;;;;;;5009428;28;20053;-66
2021/11/18 10:06:54;;;;;;;20.08;11.10;;;13.50;99.90;;;;;;5012730;28;20049;-67
2021/11/18 10:09:28;;;;;;;20.10;10.05;;;12.90;99.90;;;;;;5013417;28;20054;-66
2021/11/18 10:12:04;;;;;;;19.73;10.40;;;10.80;99.90;;;;;;5013092;28;20049;-67
2021/11/18 10:14:57;;;;;;;18.15;9.40;;;11.50;99.90;;;;;;5013638;28;20053;-66
2021/11/18 10:17:30;;;;;;;18.40;9.63;;;11.40;99.90;;;;;;5006902;28;20084;-67
2021/11/18 10:20:02;;;;;;;19.27;10.48;;;12.20;99.90;;;;;;5013009;28;20057;-66
2021/11/18 10:22:31;;;;;;;25.13;11.27;;;12.40;99.90;;;;;;5014400;28;20054;-67
2021/11/18 10:24:59;;;;;;;23.95;10.98;;;10.60;99.90;;;;;;5014719;28;20053;-66
2021/11/18 10:27:31;;;;;;;24.55;11.32;;;10.30;99.90;;;;;;5012708;28;20123;-67
2021/11/18 10:30:12;;;;;;;18.58;9.85;;;9.70;99.90;;;;;;5013226;28;20112;-67
2021/11/18 10:33:03;;;;;;;28.50;11.82;;;9.10;99.90;;;;;;5013782;28;20080;-66
2021/11/18 10:35:36;;;;;;;22.25;11.32;;;9.60;99.90;;;;;;5015361;28;20131;-67
2021/11/18 10:38:25;;;;;;;24.50;12.15;;;9.40;99.90;;;;;;5018086;28;20103;-66
2021/11/18 10:41:00;;;;;;;22.88;11.98;;;9.40;99.90;;;;;;5014824;28;20054;-66
2021/11/18 10:43:31;;;;;;;21.08;10.93;;;9.30;99.90;;;;;;5014440;28;20049;-69
2021/11/18 10:46:15;;;;;;;27.27;11.48;;;9.10;99.90;;;;;;5016625;28;20050;-66
2021/11/18 10:48:56;;;;;;;25.00;11.65;;;9.00;99.90;;;;;;5018485;28;20125;-66
2021/11/18 10:51:31;;;;;;;22.15;11.50;;;9.00;99.90;;;;;;5012310;28;20449;-66
2021/11/18 10:54:01;;;;;;;26.73;11.30;;;8.90;99.90;;;;;;5013157;28;20054;-66
2021/11/18 10:56:33;;;;;;;25.15;11.00;;;8.70;99.90;;;;;;5011793;28;20054;-67
2021/11/18 10:59:07;;;;;;;25.52;11.23;;;8.90;99.90;;;;;;5012530;28;20135;-66
2021/11/18 11:01:43;;;;;;;28.05;13.50;;;8.70;99.90;;;;;;5012570;28;20085;-66
2021/11/18 11:04:32;;;;;;;25.70;12.98;;;8.70;99.90;;;;;;5012595;28;20058;-66
2021/11/18 11:06:59;;;;;;;24.80;12.88;;;8.70;99.90;;;;;;5013083;28;20050;-67
2021/11/18 11:09:32;;;;;;;25.98;12.82;;;8.60;99.90;;;;;;5012069;28;20104;-66
2021/11/18 11:12:11;;;;;;;26.25;12.73;;;8.70;99.90;;;;;;5011998;28;20054;-66
2021/11/18 11:15:05;;;;;;;27.13;12.23;;;8.70;99.90;;;;;;5011774;28;20050;-66
2021/11/18 11:17:59;;;;;;;25.20;12.07;;;8.60;99.90;;;;;;5011722;28;20053;-66
2021/11/18 11:20:36;;;;;;;28.48;11.95;;;8.40;99.90;;;;;;5011216;28;20088;-66
2021/11/18 11:23:10;;;;;;;24.65;11.63;;;8.50;99.90;;;;;;5012703;28;20469;-66
2021/11/18 11:26:05;;;;;;;25.63;12.48;;;8.50;99.90;;;;;;5010994;28;20053;-66
2021/11/18 11:28:58;;;;;;;26.95;13.05;;;8.50;99.90;;;;;;5011178;28;20050;-66
2021/11/18 11:31:45;;;;;;;23.92;12.02;;;8.70;99.90;;;;;;5007704;28;20045;-66
2021/11/18 11:34:35;;;;;;;26.23;13.57;;;8.80;99.90;;;;;;5011441;28;20046;-66
2021/11/18 11:37:16;;;;;;;30.70;14.18;;;9.20;99.90;;;;;;5010586;28;20050;-66
2021/11/18 11:39:49;;;;;;;27.17;12.02;;;9.10;99.90;;;;;;5008859;28;20104;-66
2021/11/18 11:42:41;;;;;;;33.65;13.55;;;8.70;99.90;;;;;;5003017;28;20054;-67
2021/11/18 11:45:17;;;;;;;27.00;13.40;;;8.70;99.90;;;;;;5016718;28;20053;-66
2021/11/18 11:48:08;;;;;;;24.92;12.90;;;8.90;99.90;;;;;;5030294;28;20156;-66
2021/11/18 11:50:53;;;;;;;24.15;12.43;;;8.70;99.90;;;;;;5005938;28;20054;-66
2021/11/18 11:53:29;;;;;;;23.48;11.77;;;8.80;99.90;;;;;;5010379;28;20085;-67
2021/11/18 11:56:04;;;;;;;22.90;13.25;;;8.40;99.90;;;;;;5009391;28;20050;-67
2021/11/18 11:58:35;;;;;;;27.98;12.77;;;8.60;99.90;;;;;;5010941;28;20058;-66
2021/11/18 12:01:29;;;;;;;24.30;11.32;;;8.70;99.90;;;;;;5007123;28;20085;-66
2021/11/18 12:04:01;;;;;;;21.50;12.15;;;8.70;99.90;;;;;;5010469;28;20525;-66
2021/11/18 12:06:31;;;;;;;21.02;10.35;;;8.80;99.90;;;;;;5009302;28;20049;-67
2021/11/18 12:09:04;;;;;;;25.40;10.85;;;8.80;99.90;;;;;;5010548;28;20498;-66
2021/11/18 12:11:38;;;;;;;20.60;10.18;;;8.80;99.90;;;;;;5010144;28;20580;-66
2021/11/18 12:14:11;;;;;;;23.90;10.95;;;8.60;99.90;;;;;;5010271;28;20457;-66
2021/11/18 12:16:43;;;;;;;24.70;10.40;;;8.60;99.90;;;;;;5008993;28;20498;-66
2021/11/18 12:19:22;;;;;;;25.45;11.07;;;8.60;99.90;;;;;;5010099;28;20053;-66
2021/11/18 12:21:49;;;;;;;17.25;9.80;;;8.70;99.90;;;;;;5009958;28;20091;-66
2021/11/18 12:24:20;;;;;;;22.10;10.07;;;8.60;99.90;;;;;;5010103;28;20091;-66
2021/11/18 12:27:01;;;;;;;22.85;11.00;;;8.50;99.90;;;;;;5009265;28;20050;-67
2021/11/18 12:29:47;;;;;;;21.23;11.10;;;8.70;99.90;;;;;;5009907;28;20101;-66
2021/11/18 12:32:33;;;;;;;23.33;9.90;;;8.50;99.90;;;;;;5009648;28;20049;-66
2021/11/18 12:35:14;;;;;;;24.83;11.10;;;8.60;99.90;;;;;;5009084;28;20053;-66
2021/11/18 12:38:04;;;;;;;23.02;9.80;;;8.70;99.90;;;;;;5009933;28;20276;-66
2021/11/18 12:40:47;;;;;;;18.88;9.15;;;8.70;99.90;;;;;;5009574;28;20054;-66
2021/11/18 12:43:33;;;;;;;21.33;10.27;;;8.60;99.90;;;;;;5002476;28;20123;-66
2021/11/18 12:46:22;;;;;;;17.65;8.38;;;8.60;99.90;;;;;;5008513;28;20109;-66
2021/11/18 12:49:14;;;;;;;19.17;8.90;;;8.80;99.90;;;;;;5009519;28;20050;-66
2021/11/18 12:52:20;;;;;;;17.63;7.72;;;8.80;99.90;;;;;;5009207;28;20059;-66
2021/11/18 12:55:18;;;;;;;18.80;8.50;;;9.30;99.90;;;;;;5008750;28;20053;-66
2021/11/18 12:57:48;;;;;;;17.73;7.82;;;9.10;99.90;;;;;;5008941;28;20050;-66
2021/11/18 13:00:38;;;;;;;23.02;8.68;;;8.70;99.90;;;;;;5009431;28;20073;-66
2021/11/18 13:03:07;;;;;;;23.27;11.27;;;8.80;99.90;;;;;;5009058;28;20457;-66
2021/11/18 13:05:55;;;;;;;21.63;8.93;;;8.80;99.90;;;;;;5008682;28;20053;-66
2021/11/18 13:08:56;;;;;;;16.15;8.25;;;8.90;99.90;;;;;;5009479;28;20565;-67
2021/11/18 13:11:47;;;;;;;17.13;8.10;;;8.80;99.90;;;;;;5003439;28;20060;-66
2021/11/18 13:14:47;;;;;;;15.88;7.10;;;8.70;99.90;;;;;;5002358;28;20049;-66
2021/11/18 13:17:48;;;;;;;17.08;7.72;;;8.70;99.90;;;;;;5001649;28;20057;-66
2021/11/18 13:20:45;;;;;;;19.80;7.93;;;8.40;99.90;;;;;;5009771;28;20089;-66
2021/11/18 13:23:35;;;;;;;17.27;8.05;;;8.30;99.90;;;;;;5010178;28;20185;-66
2021/11/18 13:26:07;;;;;;;18.83;8.30;;;8.30;99.90;;;;;;5009451;28;20513;-67
2021/11/18 13:28:48;;;;;;;18.80;8.73;;;8.20;99.90;;;;;;5009414;28;20423;-67
2021/11/18 13:31:24;;;;;;;15.70;7.88;;;8.20;99.90;;;;;;5009710;28;20053;-67
2021/11/18 13:33:51;;;;;;;18.10;7.82;;;8.30;99.90;;;;;;5010289;28;20617;-67
2021/11/18 13:36:27;;;;;;;21.52;8.05;;;8.10;99.90;;;;;;5009372;28;20518;-67
2021/11/18 13:38:57;;;;;;;16.23;7.70;;;8.20;99.90;;;;;;5011228;28;20050;-67
2021/11/18 13:41:35;;;;;;;21.88;8.70;;;8.10;99.90;;;;;;5011184;28;20100;-66
2021/11/18 13:44:04;;;;;;;17.70;8.40;;;8.10;99.90;;;;;;5009950;28;20054;-67
2021/11/18 13:46:35;;;;;;;21.20;8.65;;;8.10;99.90;;;;;;5009106;28;20578;-66
2021/11/18 13:49:05;;;;;;;16.60;7.60;;;8.10;99.90;;;;;;5009030;28;20054;-67
2021/11/18 13:51:38;;;;;;;20.33;9.23;;;8.10;99.90;;;;;;5009249;28;20491;-67
2021/11/18 13:54:08;;;;;;;17.27;8.35;;;8.00;99.90;;;;;;5009055;28;20353;-67
2021/11/18 13:56:43;;;;;;;22.40;10.25;;;8.10;99.90;;;;;;5010218;28;20050;-66
2021/11/18 13:59:16;;;;;;;18.75;8.60;;;8.10;99.90;;;;;;5009480;28;20053;-67
2021/11/18 14:01:48;;;;;;;18.27;8.52;;;8.10;99.90;;;;;;5008727;28;20050;-67
2021/11/18 14:04:18;;;;;;;21.20;8.63;;;8.10;99.90;;;;;;5009134;28;20050;-67
2021/11/18 14:06:48;;;;;;;22.83;8.18;;;8.20;99.90;;;;;;5008171;28;20053;-67
2021/11/18 14:09:19;;;;;;;17.20;8.68;;;8.10;99.90;;;;;;5010864;28;20105;-66
2021/11/18 14:11:51;;;;;;;16.90;7.22;;;8.00;99.90;;;;;;5012672;28;20049;-67
2021/11/18 14:14:37;;;;;;;19.65;6.72;;;8.10;99.90;;;;;;5012911;28;20108;-66
2021/11/18 14:17:22;;;;;;;19.40;7.72;;;8.00;99.90;;;;;;5012002;28;20057;-67
2021/11/18 14:19:55;;;;;;;16.20;7.90;;;8.00;99.90;;;;;;5012074;28;20093;-67
2021/11/18 14:22:27;;;;;;;22.08;8.40;;;8.00;99.90;;;;;;5012366;28;20050;-66
2021/11/18 14:24:57;;;;;;;17.25;8.15;;;8.00;99.90;;;;;;5012316;28;20417;-67
2021/11/18 14:27:28;;;;;;;22.95;8.02;;;8.00;99.90;;;;;;5013617;28;20093;-67
2021/11/18 14:29:57;;;;;;;18.50;8.20;;;7.90;99.90;;;;;;5013524;28;20453;-66
2021/11/18 14:32:36;;;;;;;15.63;7.40;;;7.90;99.90;;;;;;5012193;28;20058;-67
2021/11/18 14:35:17;;;;;;;19.63;8.07;;;7.90;99.90;;;;;;5011272;28;20054;-67
2021/11/18 14:37:53;;;;;;;17.40;8.50;;;7.90;99.90;;;;;;5012052;28;20112;-67
2021/11/18 14:40:28;;;;;;;21.13;9.75;;;7.80;99.90;;;;;;5012183;28;20061;-67
2021/11/18 14:42:57;;;;;;;19.90;9.68;;;7.80;99.90;;;;;;5011975;28;20053;-66
2021/11/18 14:45:29;;;;;;;20.35;8.85;;;7.80;99.90;;;;;;5015873;28;20103;-65
2021/11/18 14:48:21;;;;;;;22.23;9.38;;;7.70;99.90;;;;;;5012347;28;20137;-66
2021/11/18 14:53:26;;;;;;;22.02;9.63;;;7.60;99.90;;;;;;5013654;28;20068;-68
2021/11/18 14:56:01;;;;;;;19.55;9.82;;;7.60;99.90;;;;;;5031544;28;20408;-68
2021/11/18 14:58:28;;;;;;;21.02;9.63;;;7.50;99.90;;;;;;5031718;28;20045;-68
2021/11/18 15:00:58;;;;;;;19.88;10.30;;;7.50;99.90;;;;;;5031606;28;20049;-68
2021/11/18 15:03:29;;;;;;;19.85;9.80;;;7.40;99.90;;;;;;5031375;28;20048;-68
2021/11/18 15:05:58;;;;;;;31.23;11.02;;;7.30;99.90;;;;;;5030956;28;20468;-70
2021/11/18 15:08:26;;;;;;;21.60;10.35;;;7.30;99.90;;;;;;5031813;28;20457;-68
2021/11/18 15:10:55;;;;;;;21.90;10.23;;;7.30;99.90;;;;;;5032152;28;20049;-69
2021/11/18 15:13:23;;;;;;;23.15;10.70;;;7.20;99.90;;;;;;5031637;28;20054;-68
2021/11/18 15:15:50;;;;;;;21.95;10.13;;;7.20;99.90;;;;;;5031026;28;20057;-68
2021/11/18 15:18:18;;;;;;;20.55;9.90;;;7.10;99.90;;;;;;5031377;28;20053;-69
2021/11/18 15:20:49;;;;;;;29.60;12.18;;;7.10;99.90;;;;;;5031226;28;20068;-67
2021/11/18 15:23:18;;;;;;;22.73;10.02;;;7.00;99.90;;;;;;5031353;28;20057;-68
2021/11/18 15:25:46;;;;;;;26.40;10.85;;;7.00;99.90;;;;;;5031011;28;20493;-68
2021/11/18 15:28:15;;;;;;;24.35;10.23;;;6.90;99.90;;;;;;5031363;28;20049;-68
2021/11/18 15:30:46;;;;;;;26.92;10.77;;;6.90;99.90;;;;;;5031210;28;20215;-68
2021/11/18 15:33:13;;;;;;;23.83;10.50;;;6.90;99.90;;;;;;5030897;28;20501;-68
2021/11/18 15:35:41;;;;;;;22.55;9.68;;;6.80;99.90;;;;;;5030499;28;20107;-68
2021/11/18 15:38:12;;;;;;;26.63;10.10;;;6.70;99.90;;;;;;5031272;28;20061;-68
2021/11/18 15:40:41;;;;;;;22.63;11.38;;;6.70;99.90;;;;;;5030946;28;20076;-68
2021/11/18 15:43:09;;;;;;;20.38;10.98;;;6.70;99.90;;;;;;5030501;28;20095;-68
2021/11/18 15:45:37;;;;;;;22.17;11.45;;;6.60;99.90;;;;;;5029765;28;20046;-68
2021/11/18 15:48:06;;;;;;;19.98;9.38;;;6.60;99.90;;;;;;5030795;28;20103;-68
2021/11/18 15:50:35;;;;;;;21.92;10.65;;;6.60;99.90;;;;;;5031174;28;20096;-68
2021/11/18 15:53:04;;;;;;;18.80;9.18;;;6.50;99.90;;;;;;5030651;28;20076;-69
2021/11/18 15:55:35;;;;;;;19.48;9.73;;;6.50;99.90;;;;;;5030754;28;20053;-69
2021/11/18 15:58:03;;;;;;;23.27;9.88;;;6.50;99.90;;;;;;5031360;28;20128;-68
2021/11/18 16:00:33;;;;;;;21.15;10.50;;;6.40;99.90;;;;;;5030582;28;20118;-68
2021/11/18 16:03:03;;;;;;;23.40;10.18;;;6.40;99.90;;;;;;5031428;28;20095;-68
2021/11/18 16:05:33;;;;;;;25.75;11.15;;;6.30;99.90;;;;;;5030130;28;20556;-69
2021/11/18 16:08:00;;;;;;;21.92;9.68;;;6.30;99.90;;;;;;5030890;28;20092;-69
2021/11/18 16:10:31;;;;;;;22.67;10.23;;;6.30;99.90;;;;;;5031179;28;20052;-69
2021/11/18 16:13:04;;;;;;;19.65;10.00;;;6.30;99.90;;;;;;5030686;28;20057;-69
2021/11/18 16:15:39;;;;;;;24.05;9.25;;;6.30;99.90;;;;;;5031375;28;20521;-68
2021/11/18 16:18:09;;;;;;;23.45;10.20;;;6.30;99.90;;;;;;5031255;28;20095;-69
2021/11/18 16:20:37;;;;;;;21.83;9.95;;;6.20;99.90;;;;;;5030618;28;20485;-69
2021/11/18 16:23:04;;;;;;;21.33;10.23;;;6.20;99.90;;;;;;5030899;28;20046;-69
2021/11/18 16:25:33;;;;;;;17.45;8.18;;;6.20;99.90;;;;;;5030011;28;20053;-69
2021/11/18 16:28:02;;;;;;;26.73;12.57;;;6.20;99.90;;;;;;5031408;28;20049;-70
2021/11/18 16:30:31;;;;;;;48.97;22.95;;;6.20;99.90;;;;;;5030920;28;20049;-69
2021/11/18 16:32:59;;;;;;;99.53;50.67;;;6.00;99.90;;;;;;5031724;28;20053;-68
2021/11/18 16:35:27;;;;;;;28.00;13.80;;;6.00;99.90;;;;;;5047740;28;20053;-69
2021/11/18 16:37:54;;;;;;;33.72;17.50;;;6.00;99.90;;;;;;5043006;28;20088;-70
2021/11/18 16:40:24;;;;;;;53.28;28.50;;;6.00;99.90;;;;;;5033390;28;20049;-69
2021/11/18 16:42:52;;;;;;;26.63;12.52;;;5.90;99.90;;;;;;5031226;28;20115;-69
2021/11/18 16:45:22;;;;;;;25.73;11.80;;;6.00;99.90;;;;;;5030944;28;20084;-68
2021/11/18 16:47:49;;;;;;;19.60;11.13;;;6.00;99.90;;;;;;5032015;28;20045;-69
2021/11/18 16:50:20;;;;;;;31.77;16.77;;;6.00;99.90;;;;;;5030739;28;20049;-69
2021/11/18 16:52:51;;;;;;;27.35;12.40;;;6.10;99.90;;;;;;5030213;28;20480;-68
2021/11/18 16:55:23;;;;;;;23.73;11.32;;;6.30;99.90;;;;;;5030473;28;20050;-69
2021/11/18 16:57:52;;;;;;;23.58;10.32;;;6.30;99.90;;;;;;5030755;28;20501;-69
2021/11/18 17:00:26;;;;;;;19.42;10.40;;;6.30;99.90;;;;;;5031246;28;20053;-69
2021/11/18 17:02:53;;;;;;;25.20;10.55;;;6.30;99.90;;;;;;5030443;28;20092;-69
2021/11/18 17:05:21;;;;;;;22.17;9.77;;;6.40;99.90;;;;;;5030088;28;20285;-69
2021/11/18 17:07:48;;;;;;;21.70;10.57;;;6.40;99.90;;;;;;5030902;28;20045;-68
2021/11/18 17:10:16;;;;;;;22.05;10.45;;;6.40;99.90;;;;;;5023252;28;20480;-68
2021/11/18 17:12:47;;;;;;;20.98;10.13;;;6.40;99.90;;;;;;5030611;28;20045;-68
2021/11/18 17:15:17;;;;;;;22.67;10.50;;;6.50;99.90;;;;;;5030656;28;20065;-69
2021/11/18 17:17:45;;;;;;;21.63;10.60;;;6.50;99.90;;;;;;5030749;28;20049;-69
2021/11/18 17:20:14;;;;;;;18.17;9.52;;;6.50;99.90;;;;;;5030092;28;20049;-70
2021/11/18 17:22:42;;;;;;;27.80;12.38;;;6.60;99.90;;;;;;5029932;28;20119;-69
2021/11/18 17:25:12;;;;;;;21.27;10.07;;;6.60;99.90;;;;;;5030896;28;20409;-69
2021/11/18 17:27:39;;;;;;;21.50;10.88;;;6.60;99.90;;;;;;5030151;28;20099;-69
2021/11/18 17:30:11;;;;;;;22.13;10.10;;;6.70;99.90;;;;;;5030851;28;20486;-69
2021/11/18 17:32:39;;;;;;;23.02;11.27;;;6.60;99.90;;;;;;5030509;28;20096;-70
2021/11/18 17:35:08;;;;;;;20.50;10.55;;;6.80;99.90;;;;;;5030250;28;20053;-69
2021/11/18 17:37:36;;;;;;;22.73;10.63;;;6.70;99.90;;;;;;5031205;28;20046;-69
2021/11/18 17:40:09;;;;;;;19.58;10.73;;;6.70;99.90;;;;;;5030371;28;20493;-69
2021/11/18 17:42:37;;;;;;;25.10;11.00;;;6.80;99.90;;;;;;5031396;28;20460;-69
2021/11/18 17:45:09;;;;;;;26.92;10.57;;;6.80;99.90;;;;;;5033813;28;20099;-69
2021/11/18 17:47:37;;;;;;;23.45;11.25;;;6.80;99.90;;;;;;5035269;28;20057;-69
2021/11/18 17:50:10;;;;;;;22.30;11.25;;;6.80;99.90;;;;;;5034590;28;20049;-69
2021/11/18 17:52:40;;;;;;;28.75;11.85;;;6.80;99.90;;;;;;5034523;28;20057;-69
2021/11/18 17:55:09;;;;;;;22.05;10.40;;;6.80;99.90;;;;;;5034911;28;20063;-70
2021/11/18 17:57:36;;;;;;;24.90;11.80;;;6.80;99.90;;;;;;5034751;28;20050;-69
2021/11/18 18:00:10;;;;;;;25.40;12.40;;;6.80;99.90;;;;;;5034520;28;20497;-70
2021/11/18 18:02:38;;;;;;;23.83;11.70;;;6.80;99.90;;;;;;5034328;28;20045;-70
2021/11/18 18:05:07;;;;;;;25.27;12.00;;;6.80;99.90;;;;;;5033872;28;20057;-69
2021/11/18 18:07:36;;;;;;;22.75;11.63;;;6.80;99.90;;;;;;5033845;28;20053;-69
2021/11/18 18:10:05;;;;;;;27.40;12.85;;;6.80;99.90;;;;;;5034211;28;20452;-69
2021/11/18 18:12:32;;;;;;;25.50;12.32;;;6.80;99.90;;;;;;5033808;28;20057;-69
2021/11/18 18:15:00;;;;;;;24.50;12.60;;;6.80;99.90;;;;;;5033936;28;20516;-69
2021/11/18 18:17:31;;;;;;;25.67;12.70;;;6.70;99.90;;;;;;5033792;28;20053;-70
2021/11/18 18:19:58;;;;;;;21.50;12.20;;;6.70;99.90;;;;;;5033536;28;20268;-69
2021/11/18 18:22:28;;;;;;;26.50;13.73;;;6.70;99.90;;;;;;5033710;28;20053;-68
2021/11/18 18:24:59;;;;;;;25.60;12.85;;;6.60;99.90;;;;;;5033418;28;20052;-70
2021/11/18 18:27:29;;;;;;;27.88;13.43;;;6.50;99.90;;;;;;5034002;28;20502;-69
2021/11/18 18:29:58;;;;;;;25.92;12.77;;;6.50;99.90;;;;;;5033954;28;20052;-69
2021/11/18 18:32:29;;;;;;;26.00;12.65;;;6.50;99.90;;;;;;5033949;28;20049;-69
2021/11/18 18:34:58;;;;;;;22.67;12.55;;;6.60;99.90;;;;;;5032877;28;20107;-69
2021/11/18 18:37:31;;;;;;;24.33;11.77;;;6.50;99.90;;;;;;5033694;28;20084;-68
2021/11/18 18:40:02;;;;;;;23.90;12.40;;;6.50;99.90;;;;;;5033971;28;20059;-69
2021/11/18 18:42:30;;;;;;;27.17;13.32;;;6.50;99.90;;;;;;5033532;28;20056;-69
2021/11/18 18:44:57;;;;;;;29.67;12.25;;;6.50;99.90;;;;;;5033089;28;20111;-69
2021/11/18 18:47:24;;;;;;;27.98;13.13;;;6.40;99.90;;;;;;5033153;28;20061;-68
2021/11/18 18:49:53;;;;;;;26.63;13.00;;;6.30;99.90;;;;;;5033790;28;20077;-68
2021/11/18 18:52:24;;;;;;;26.45;13.52;;;6.30;99.90;;;;;;5033334;28;20310;-69
2021/11/18 18:54:51;;;;;;;28.15;13.52;;;6.30;99.90;;;;;;5032563;28;20054;-70
2021/11/18 18:57:23;;;;;;;40.22;13.57;;;6.30;99.90;;;;;;5034187;28;20548;-69
2021/11/18 18:59:51;;;;;;;29.33;13.18;;;6.10;99.90;;;;;;5033320;28;20045;-69
2021/11/18 19:02:22;;;;;;;26.42;13.93;;;6.20;99.90;;;;;;5033064;28;20104;-70
2021/11/18 19:04:49;;;;;;;25.90;13.27;;;6.20;99.90;;;;;;5033203;28;20049;-69
2021/11/18 19:07:18;;;;;;;25.55;13.63;;;6.20;99.90;;;;;;5032931;28;20460;-70
2021/11/18 19:09:46;;;;;;;29.40;14.18;;;6.10;99.90;;;;;;5032957;28;20045;-70
2021/11/18 19:12:15;;;;;;;29.40;15.30;;;6.20;99.90;;;;;;5032765;28;20050;-70
2021/11/18 19:14:46;;;;;;;27.63;14.32;;;6.10;99.90;;;;;;5033185;28;20571;-70
2021/11/18 19:17:13;;;;;;;31.08;15.23;;;6.10;99.90;;;;;;5032852;28;20112;-71
2021/11/18 19:19:44;;;;;;;33.80;14.40;;;6.10;99.90;;;;;;5032736;28;20305;-70
2021/11/18 19:22:14;;;;;;;33.65;16.27;;;6.10;99.90;;;;;;5032564;28;20096;-69
2021/11/18 19:24:42;;;;;;;33.55;15.55;;;6.00;99.90;;;;;;5032086;28;20053;-71
2021/11/18 19:27:14;;;;;;;31.35;16.50;;;6.00;99.90;;;;;;5032614;28;20334;-69
2021/11/18 19:32:39;;;;;;;33.22;16.90;;;6.00;99.90;;;;;;5031905;28;20115;-69
2021/11/18 19:35:09;;;;;;;30.17;16.13;;;5.90;99.90;;;;;;5031693;28;20140;-70
2021/11/18 19:37:39;;;;;;;33.45;15.63;;;5.90;99.90;;;;;;5032299;28;20049;-70
2021/11/18 19:40:10;;;;;;;34.63;16.60;;;5.80;99.90;;;;;;5032775;28;20369;-69
2021/11/18 19:42:39;;;;;;;31.45;15.80;;;5.70;99.90;;;;;;5032282;28;20049;-69
2021/11/18 19:45:12;;;;;;;36.85;17.50;;;5.70;99.90;;;;;;5032067;28;20484;-69
2021/11/18 19:47:39;;;;;;;35.75;17.05;;;5.70;99.90;;;;;;5032150;28;20056;-70
2021/11/18 19:50:08;;;;;;;31.60;16.27;;;5.70;99.90;;;;;;5031766;28;20057;-70
2021/11/18 19:52:50;;;;;;;30.42;15.20;;;5.70;99.90;;;;;;5032430;28;20053;-69
2021/11/18 19:55:20;;;;;;;25.10;14.00;;;5.70;99.90;;;;;;5024343;28;20053;-70
2021/11/18 19:57:47;;;;;;;34.67;15.52;;;5.70;99.90;;;;;;5032672;28;20049;-69
2021/11/18 20:00:18;;;;;;;30.15;14.98;;;5.70;99.90;;;;;;5033975;28;20054;-70
2021/11/18 20:02:47;;;;;;;31.95;15.30;;;5.70;99.90;;;;;;5052369;28;20033;-71
2021/11/18 20:05:15;;;;;;;31.30;15.50;;;5.70;99.90;;;;;;5049204;28;20045;-70
2021/11/18 20:07:42;;;;;;;31.63;14.32;;;5.70;99.90;;;;;;5034130;28;20383;-69
2021/11/18 20:10:10;;;;;;;29.58;14.70;;;5.70;99.90;;;;;;5033118;28;20046;-69
2021/11/18 20:12:40;;;;;;;29.75;14.75;;;5.70;99.90;;;;;;5037008;28;20050;-70
2021/11/18 20:15:10;;;;;;;30.20;14.02;;;5.70;99.90;;;;;;5035578;28;20057;-69
2021/11/18 20:17:40;;;;;;;26.73;12.70;;;5.70;99.90;;;;;;5033271;28;20053;-70
2021/11/18 20:20:09;;;;;;;27.77;14.27;;;5.80;99.90;;;;;;5032583;28;20419;-69
2021/11/18 20:22:38;;;;;;;29.10;13.88;;;5.90;99.90;;;;;;5032288;28;20053;-69
2021/11/18 20:25:06;;;;;;;29.02;13.00;;;6.00;99.90;;;;;;5031563;28;20502;-70
2021/11/18 20:27:34;;;;;;;33.03;14.43;;;6.00;99.90;;;;;;5031627;28;20193;-70
2021/11/18 20:30:01;;;;;;;29.83;14.50;;;6.00;99.90;;;;;;5031460;28;20099;-69
2021/11/18 20:32:31;;;;;;;31.02;13.35;;;6.00;99.90;;;;;;5030519;28;20489;-70
2021/11/18 20:35:02;;;;;;;30.95;14.63;;;6.00;99.90;;;;;;5030898;28;20050;-70
2021/11/18 20:37:31;;;;;;;27.95;13.73;;;6.00;99.90;;;;;;5031364;28;20055;-70
2021/11/18 20:40:02;;;;;;;27.17;13.73;;;6.00;99.90;;;;;;5030812;28;20304;-69
2021/11/18 20:42:29;;;;;;;28.88;13.52;;;6.00;99.90;;;;;;5031273;28;20064;-70
2021/11/18 20:44:56;;;;;;;29.27;12.90;;;6.00;99.90;;;;;;5030696;28;20103;-70
2021/11/18 20:47:25;;;;;;;28.60;12.32;;;6.10;99.90;;;;;;5030422;28;20104;-70
2021/11/18 20:49:56;;;;;;;30.80;13.35;;;6.00;99.90;;;;;;5030602;28;20123;-70
2021/11/18 20:52:26;;;;;;;26.98;13.13;;;6.00;99.90;;;;;;5033956;22;20464;-67
2021/11/18 20:54:54;;;;;;;29.48;13.55;;;6.00;99.90;;;;;;5010319;28;20116;-67
2021/11/18 20:57:23;;;;;;;27.08;13.25;;;5.90;99.90;;;;;;5010719;28;20072;-67
2021/11/18 20:59:50;;;;;;;30.88;13.27;;;5.90;99.90;;;;;;5010108;28;20058;-67
2021/11/18 21:02:21;;;;;;;29.55;13.30;;;5.90;99.90;;;;;;5010360;28;20104;-67
2021/11/18 21:04:48;;;;;;;27.13;12.63;;;5.80;99.90;;;;;;5009888;28;20100;-66
2021/11/18 21:07:18;;;;;;;25.73;13.52;;;5.80;99.90;;;;;;5009972;28;20049;-66
2021/11/18 21:09:48;;;;;;;30.15;13.50;;;5.80;99.90;;;;;;5010107;28;20100;-66
2021/11/18 21:12:18;;;;;;;27.30;13.75;;;5.70;99.90;;;;;;5010033;28;20045;-66
2021/11/18 21:14:46;;;;;;;27.52;12.98;;;5.70;99.90;;;;;;5009736;28;20061;-66
2021/11/18 21:17:16;;;;;;;32.08;14.68;;;5.60;99.90;;;;;;5010268;28;20143;-66
2021/11/18 21:19:43;;;;;;;33.45;13.52;;;5.50;99.90;;;;;;5009679;28;20088;-68
2021/11/18 21:22:11;;;;;;;35.78;14.25;;;5.50;99.90;;;;;;5009805;28;20046;-66
2021/11/18 21:24:39;;;;;;;31.20;14.43;;;5.50;99.90;;;;;;5009422;28;20041;-66
2021/11/18 21:27:09;;;;;;;29.48;14.25;;;5.50;99.90;;;;;;5009759;28;20564;-66
2021/11/18 21:29:39;;;;;;;35.40;14.93;;;5.50;99.90;;;;;;5009995;28;20053;-66
2021/11/18 21:32:07;;;;;;;30.88;14.63;;;5.40;99.90;;;;;;5010134;28;20049;-66
2021/11/18 21:34:35;;;;;;;29.60;13.95;;;5.30;99.90;;;;;;5009957;28;20108;-66
2021/11/18 21:37:05;;;;;;;34.75;14.35;;;5.40;99.90;;;;;;5009215;28;20553;-66
2021/11/18 21:39:39;;;;;;;28.77;14.43;;;5.40;99.90;;;;;;5010204;28;20107;-66
2021/11/18 21:42:10;;;;;;;32.28;13.07;;;5.50;99.90;;;;;;5009789;28;20069;-66
2021/11/18 21:44:38;;;;;;;30.67;13.95;;;5.50;99.90;;;;;;5009943;28;20514;-66
2021/11/18 21:47:11;;;;;;;27.70;13.05;;;5.50;99.90;;;;;;5010017;28;20068;-66
2021/11/18 21:49:41;;;;;;;28.95;12.43;;;5.60;99.90;;;;;;5009852;28;20050;-67
2021/11/18 21:52:10;;;;;;;25.80;11.90;;;5.70;99.90;;;;;;5009351;28;20514;-66
2021/11/18 21:54:40;;;;;;;26.02;12.73;;;5.70;99.90;;;;;;5009764;28;20046;-66
2021/11/18 21:57:12;;;;;;;35.90;13.88;;;5.60;99.90;;;;;;5009499;28;20054;-66
2021/11/18 21:59:39;;;;;;;31.95;13.80;;;5.70;99.90;;;;;;5009679;28;20089;-66
2021/11/18 22:02:10;;;;;;;26.73;12.02;;;5.60;99.90;;;;;;5009353;28;20054;-66
2021/11/18 22:04:39;;;;;;;30.60;13.30;;;5.60;99.90;;;;;;5009184;28;20198;-66